sensor_id;sensor_type;location;lat;lon;timestamp;pressure;altitude;pressure_sealevel;temperature;humidity
62942;BME280;49042;47.318;19.874;2022-07-04T00:01:30;100391.00;;;19.55;70.44
62942;BME280;49042;47.318;19.874;2022-07-04T00:04:32;100382.87;;;19.79;69.50
62942;BME280;49042;47.318;19.874;2022-07-04T00:07:34;100383.63;;;19.95;69.57
62942;BME280;49042;47.318;19.874;2022-07-04T00:10:37;100381.00;;;19.94;69.01
62942;BME280;49042;47.318;19.874;2022-07-04T00:13:38;100391.34;;;20.24;67.40
62942;BME280;49042;47.318;19.874;2022-07-04T00:16:40;100384.31;;;20.19;67.47
62942;BME280;49042;47.318;19.874;2022-07-04T00:19:42;100387.84;;;20.20;67.45
62942;BME280;49042;47.318;19.874;2022-07-04T00:22:45;100380.53;;;20.44;66.63
62942;BME280;49042;47.318;19.874;2022-07-04T00:25:47;100390.44;;;20.26;66.51
62942;BME280;49042;47.318;19.874;2022-07-04T00:28:49;100386.91;;;20.27;66.38
62942;BME280;49042;47.318;19.874;2022-07-04T00:31:50;100393.03;;;20.29;66.21
62942;BME280;49042;47.318;19.874;2022-07-04T00:34:52;100391.12;;;20.46;64.44
62942;BME280;49042;47.318;19.874;2022-07-04T00:37:54;100387.44;;;20.59;64.43
62942;BME280;49042;47.318;19.874;2022-07-04T00:40:56;100389.16;;;20.63;64.21
62942;BME280;49042;47.318;19.874;2022-07-04T00:44:08;100382.84;;;20.72;63.70
62942;BME280;49042;47.318;19.874;2022-07-04T00:47:14;100387.97;;;20.85;62.74
62942;BME280;49042;47.318;19.874;2022-07-04T00:50:15;100387.38;;;20.62;63.51
62942;BME280;49042;47.318;19.874;2022-07-04T00:53:18;100387.34;;;20.65;63.48
62942;BME280;49042;47.318;19.874;2022-07-04T00:56:21;100391.66;;;20.74;63.07
62942;BME280;49042;47.318;19.874;2022-07-04T00:59:24;100390.88;;;20.66;64.26
62942;BME280;49042;47.318;19.874;2022-07-04T01:02:25;100394.50;;;20.57;63.94
62942;BME280;49042;47.318;19.874;2022-07-04T01:05:27;100396.56;;;20.31;64.81
62942;BME280;49042;47.318;19.874;2022-07-04T01:08:29;100392.22;;;20.24;65.42
62942;BME280;49042;47.318;19.874;2022-07-04T01:11:31;100397.63;;;20.10;66.27
62942;BME280;49042;47.318;19.874;2022-07-04T01:14:36;100396.97;;;19.86;67.29
62942;BME280;49042;47.318;19.874;2022-07-04T01:17:39;100391.69;;;19.79;67.99
62942;BME280;49042;47.318;19.874;2022-07-04T01:20:41;100384.78;;;19.63;69.29
62942;BME280;49042;47.318;19.874;2022-07-04T01:23:42;100382.97;;;19.69;69.00
62942;BME280;49042;47.318;19.874;2022-07-04T01:26:44;100383.03;;;19.60;69.74
62942;BME280;49042;47.318;19.874;2022-07-04T01:29:46;100370.88;;;19.34;70.67
62942;BME280;49042;47.318;19.874;2022-07-04T01:32:48;100370.88;;;19.35;70.53
62942;BME280;49042;47.318;19.874;2022-07-04T01:35:50;100374.41;;;19.36;70.30
62942;BME280;49042;47.318;19.874;2022-07-04T01:38:52;100375.50;;;18.89;72.37
62942;BME280;49042;47.318;19.874;2022-07-04T01:41:54;100373.63;;;19.10;71.96
62942;BME280;49042;47.318;19.874;2022-07-04T01:44:56;100381.59;;;19.07;71.77
62942;BME280;49042;47.318;19.874;2022-07-04T01:47:58;100385.13;;;18.98;72.10
62942;BME280;49042;47.318;19.874;2022-07-04T01:51:00;100386.94;;;18.91;72.87
62942;BME280;49042;47.318;19.874;2022-07-04T01:54:02;100392.22;;;18.88;72.86
62942;BME280;49042;47.318;19.874;2022-07-04T01:57:04;100387.06;;;18.61;74.35
62942;BME280;49042;47.318;19.874;2022-07-04T02:00:07;100384.25;;;19.04;72.38
62942;BME280;49042;47.318;19.874;2022-07-04T02:03:28;100379.00;;;18.96;72.96
62942;BME280;49042;47.318;19.874;2022-07-04T02:06:30;100385.16;;;19.00;72.88
62942;BME280;49042;47.318;19.874;2022-07-04T02:09:32;100382.50;;;19.04;72.69
62942;BME280;49042;47.318;19.874;2022-07-04T02:12:34;100384.38;;;18.66;73.93
62942;BME280;49042;47.318;19.874;2022-07-04T02:15:55;100382.69;;;18.49;75.17
62942;BME280;49042;47.318;19.874;2022-07-04T02:18:57;100392.34;;;18.55;74.85
62942;BME280;49042;47.318;19.874;2022-07-04T02:21:59;100399.44;;;18.34;76.02
62942;BME280;49042;47.318;19.874;2022-07-04T02:25:01;100400.34;;;18.30;75.70
62942;BME280;49042;47.318;19.874;2022-07-04T02:28:03;100408.25;;;18.05;76.47
62942;BME280;49042;47.318;19.874;2022-07-04T02:31:05;100407.38;;;18.09;76.05
62942;BME280;49042;47.318;19.874;2022-07-04T02:34:07;100411.78;;;18.15;75.89
62942;BME280;49042;47.318;19.874;2022-07-04T02:37:09;100417.94;;;18.18;76.03
62942;BME280;49042;47.318;19.874;2022-07-04T02:40:11;100413.50;;;18.20;74.83
62942;BME280;49042;47.318;19.874;2022-07-04T02:43:13;100410.03;;;18.12;75.39
62942;BME280;49042;47.318;19.874;2022-07-04T02:46:15;100417.06;;;18.12;74.94
62942;BME280;49042;47.318;19.874;2022-07-04T02:49:17;100425.84;;;18.06;75.58
62942;BME280;49042;47.318;19.874;2022-07-04T02:52:18;100426.72;;;18.46;73.27
62942;BME280;49042;47.318;19.874;2022-07-04T02:55:20;100424.06;;;18.49;73.16
62942;BME280;49042;47.318;19.874;2022-07-04T02:58:22;100429.34;;;18.57;72.97
62942;BME280;49042;47.318;19.874;2022-07-04T03:01:24;100428.50;;;17.81;76.21
62942;BME280;49042;47.318;19.874;2022-07-04T03:04:26;100426.72;;;18.43;74.17
62942;BME280;49042;47.318;19.874;2022-07-04T03:07:28;100436.41;;;18.12;74.54
62942;BME280;49042;47.318;19.874;2022-07-04T03:10:30;100438.16;;;18.07;74.71
62942;BME280;49042;47.318;19.874;2022-07-04T03:13:32;100431.13;;;18.12;73.58
62942;BME280;49042;47.318;19.874;2022-07-04T03:16:34;100433.75;;;18.22;73.32
62942;BME280;49042;47.318;19.874;2022-07-04T03:19:36;100432.03;;;18.36;72.64
62942;BME280;49042;47.318;19.874;2022-07-04T03:22:37;100440.78;;;18.62;71.15
62942;BME280;49042;47.318;19.874;2022-07-04T03:25:39;100441.56;;;18.86;70.39
62942;BME280;49042;47.318;19.874;2022-07-04T03:28:41;100438.03;;;18.89;69.71
62942;BME280;49042;47.318;19.874;2022-07-04T03:31:49;100439.75;;;19.04;68.94
62942;BME280;49042;47.318;19.874;2022-07-04T03:34:51;100439.78;;;18.96;70.43
62942;BME280;49042;47.318;19.874;2022-07-04T03:37:53;100430.97;;;18.92;70.21
62942;BME280;49042;47.318;19.874;2022-07-04T03:40:55;100429.19;;;18.94;70.54
62942;BME280;49042;47.318;19.874;2022-07-04T03:43:57;100430.03;;;19.01;71.01
62942;BME280;49042;47.318;19.874;2022-07-04T03:46:59;100428.22;;;19.16;71.11
62942;BME280;49042;47.318;19.874;2022-07-04T03:50:01;100430.00;;;19.14;70.84
62942;BME280;49042;47.318;19.874;2022-07-04T03:53:03;100431.72;;;19.29;69.71
62942;BME280;49042;47.318;19.874;2022-07-04T03:56:05;100431.72;;;19.29;68.39
62942;BME280;49042;47.318;19.874;2022-07-04T03:59:07;100429.09;;;19.28;68.43
62942;BME280;49042;47.318;19.874;2022-07-04T04:02:08;100433.37;;;19.44;68.19
62942;BME280;49042;47.318;19.874;2022-07-04T04:05:11;100425.53;;;19.30;68.45
62942;BME280;49042;47.318;19.874;2022-07-04T04:08:27;100427.31;;;19.31;69.63
62942;BME280;49042;47.318;19.874;2022-07-04T04:11:30;100422.91;;;19.30;70.00
62942;BME280;49042;47.318;19.874;2022-07-04T04:14:32;100421.16;;;19.28;71.04
62942;BME280;49042;47.318;19.874;2022-07-04T04:17:34;100427.34;;;19.25;70.87
62942;BME280;49042;47.318;19.874;2022-07-04T04:20:36;100414.06;;;19.30;70.52
62942;BME280;49042;47.318;19.874;2022-07-04T04:23:38;100422.84;;;19.43;69.66
62942;BME280;49042;47.318;19.874;2022-07-04T04:26:41;100419.16;;;19.61;69.15
62942;BME280;49042;47.318;19.874;2022-07-04T04:29:42;100417.28;;;19.80;68.64
62942;BME280;49042;47.318;19.874;2022-07-04T04:32:44;100417.97;;;20.01;68.54
62942;BME280;49042;47.318;19.874;2022-07-04T04:35:46;100421.28;;;20.30;65.71
62942;BME280;49042;47.318;19.874;2022-07-04T04:38:48;100428.47;;;20.14;67.28
62942;BME280;49042;47.318;19.874;2022-07-04T04:41:50;100428.22;;;20.46;65.53
62942;BME280;49042;47.318;19.874;2022-07-04T04:44:52;100430.50;;;20.75;65.28
62942;BME280;49042;47.318;19.874;2022-07-04T04:47:54;100423.31;;;20.85;64.58
62942;BME280;49042;47.318;19.874;2022-07-04T04:50:56;100424.13;;;20.94;64.50
62942;BME280;49042;47.318;19.874;2022-07-04T04:53:58;100421.34;;;21.03;65.07
62942;BME280;49042;47.318;19.874;2022-07-04T04:57:00;100415.09;;;21.12;66.19
62942;BME280;49042;47.318;19.874;2022-07-04T05:00:03;100424.63;;;21.24;66.62
62942;BME280;49042;47.318;19.874;2022-07-04T05:03:06;100420.69;;;21.54;64.50
62942;BME280;49042;47.318;19.874;2022-07-04T05:06:08;100419.56;;;21.69;63.93
62942;BME280;49042;47.318;19.874;2022-07-04T05:09:10;100419.34;;;21.83;63.39
62942;BME280;49042;47.318;19.874;2022-07-04T05:12:12;100413.59;;;22.11;60.42
62942;BME280;49042;47.318;19.874;2022-07-04T05:15:14;100419.81;;;22.09;61.37
62942;BME280;49042;47.318;19.874;2022-07-04T05:18:16;100415.00;;;22.33;61.34
62942;BME280;49042;47.318;19.874;2022-07-04T05:21:18;100411.94;;;22.52;59.13
62942;BME280;49042;47.318;19.874;2022-07-04T05:24:20;100413.72;;;22.53;59.50
62942;BME280;49042;47.318;19.874;2022-07-04T05:27:22;100411.53;;;22.75;58.57
62942;BME280;49042;47.318;19.874;2022-07-04T05:30:23;100410.50;;;22.83;60.13
62942;BME280;49042;47.318;19.874;2022-07-04T05:33:25;100416.50;;;22.93;58.30
62942;BME280;49042;47.318;19.874;2022-07-04T05:36:27;100404.31;;;23.24;56.16
62942;BME280;49042;47.318;19.874;2022-07-04T05:39:30;100417.38;;;23.35;55.12
62942;BME280;49042;47.318;19.874;2022-07-04T05:42:34;100415.34;;;23.84;55.38
62942;BME280;49042;47.318;19.874;2022-07-04T05:45:35;100408.66;;;24.38;55.64
62942;BME280;49042;47.318;19.874;2022-07-04T05:48:37;100413.13;;;24.37;52.96
62942;BME280;49042;47.318;19.874;2022-07-04T05:51:39;100411.00;;;24.49;51.51
62942;BME280;49042;47.318;19.874;2022-07-04T05:54:41;100412.50;;;24.59;49.95
62942;BME280;49042;47.318;19.874;2022-07-04T05:57:43;100414.06;;;24.67;50.10
62942;BME280;49042;47.318;19.874;2022-07-04T06:00:45;100421.72;;;24.79;50.09
62942;BME280;49042;47.318;19.874;2022-07-04T06:03:47;100413.34;;;24.92;50.17
62942;BME280;49042;47.318;19.874;2022-07-04T06:06:50;100413.66;;;25.13;48.12
62942;BME280;49042;47.318;19.874;2022-07-04T06:09:54;100416.78;;;25.28;48.98
62942;BME280;49042;47.318;19.874;2022-07-04T06:12:56;100418.19;;;25.40;48.24
62942;BME280;49042;47.318;19.874;2022-07-04T06:15:58;100421.78;;;25.66;49.34
62942;BME280;49042;47.318;19.874;2022-07-04T06:19:00;100419.53;;;25.82;48.12
62942;BME280;49042;47.318;19.874;2022-07-04T06:22:04;100414.62;;;25.95;47.80
62942;BME280;49042;47.318;19.874;2022-07-04T06:25:06;100419.28;;;26.16;46.96
62942;BME280;49042;47.318;19.874;2022-07-04T06:28:08;100420.66;;;26.28;45.99
62942;BME280;49042;47.318;19.874;2022-07-04T06:31:29;100414.06;;;26.38;45.58
62942;BME280;49042;47.318;19.874;2022-07-04T06:34:31;100423.81;;;26.65;46.18
62942;BME280;49042;47.318;19.874;2022-07-04T06:37:52;100416.97;;;26.82;45.20
62942;BME280;49042;47.318;19.874;2022-07-04T06:40:58;100424.13;;;26.81;43.25
62942;BME280;49042;47.318;19.874;2022-07-04T06:44:00;100432.84;;;26.87;44.05
62942;BME280;49042;47.318;19.874;2022-07-04T06:47:02;100424.16;;;27.04;41.14
62942;BME280;49042;47.318;19.874;2022-07-04T06:50:04;100427.69;;;27.29;41.70
62942;BME280;49042;47.318;19.874;2022-07-04T06:53:25;100414.84;;;27.39;40.77
62942;BME280;49042;47.318;19.874;2022-07-04T06:56:27;100414.88;;;27.37;38.51
62942;BME280;49042;47.318;19.874;2022-07-04T06:59:29;100414.28;;;27.53;39.24
62942;BME280;49042;47.318;19.874;2022-07-04T07:02:33;100408.25;;;27.46;38.46
62942;BME280;49042;47.318;19.874;2022-07-04T07:05:36;100406.56;;;27.88;41.18
62942;BME280;49042;47.318;19.874;2022-07-04T07:08:58;100413.19;;;27.57;38.31
62942;BME280;49042;47.318;19.874;2022-07-04T07:12:01;100399.25;;;27.92;38.12
62942;BME280;49042;47.318;19.874;2022-07-04T07:15:03;100400.97;;;27.95;35.86
62942;BME280;49042;47.318;19.874;2022-07-04T07:18:05;100407.31;;;27.92;36.65
62942;BME280;49042;47.318;19.874;2022-07-04T07:21:07;100404.75;;;27.89;36.80
62942;BME280;49042;47.318;19.874;2022-07-04T07:24:09;100400.56;;;28.04;35.49
62942;BME280;49042;47.318;19.874;2022-07-04T07:27:11;100396.69;;;28.31;34.47
62942;BME280;49042;47.318;19.874;2022-07-04T07:30:13;100402.47;;;28.42;35.36
62942;BME280;49042;47.318;19.874;2022-07-04T07:33:15;100399.37;;;28.52;35.09
62942;BME280;49042;47.318;19.874;2022-07-04T07:36:17;100399.91;;;28.60;33.62
62942;BME280;49042;47.318;19.874;2022-07-04T07:39:19;100400.22;;;28.73;33.55
62942;BME280;49042;47.318;19.874;2022-07-04T07:42:23;100403.25;;;28.85;30.91
62942;BME280;49042;47.318;19.874;2022-07-04T07:45:25;100403.78;;;28.93;30.53
62942;BME280;49042;47.318;19.874;2022-07-04T07:48:27;100398.31;;;29.14;30.90
62942;BME280;49042;47.318;19.874;2022-07-04T07:51:29;100391.41;;;29.08;29.69
62942;BME280;49042;47.318;19.874;2022-07-04T07:54:31;100398.25;;;29.35;30.53
62942;BME280;49042;47.318;19.874;2022-07-04T07:57:53;100396.63;;;29.50;29.34
62942;BME280;49042;47.318;19.874;2022-07-04T08:00:55;100395.59;;;29.53;29.06
62942;BME280;49042;47.318;19.874;2022-07-04T08:03:57;100391.16;;;29.52;27.42
62942;BME280;49042;47.318;19.874;2022-07-04T08:07:22;100403.31;;;29.79;29.00
62942;BME280;49042;47.318;19.874;2022-07-04T08:10:24;100399.50;;;30.01;28.60
62942;BME280;49042;47.318;19.874;2022-07-04T08:13:26;100388.00;;;30.15;29.07
62942;BME280;49042;47.318;19.874;2022-07-04T08:16:28;100388.50;;;30.23;28.17
62942;BME280;49042;47.318;19.874;2022-07-04T08:19:50;100392.41;;;30.34;27.94
62942;BME280;49042;47.318;19.874;2022-07-04T08:22:53;100384.56;;;30.47;26.84
62942;BME280;49042;47.318;19.874;2022-07-04T08:25:55;100385.47;;;30.64;25.96
62942;BME280;49042;47.318;19.874;2022-07-04T08:28:57;100384.84;;;31.09;26.71
62942;BME280;49042;47.318;19.874;2022-07-04T08:31:58;100384.94;;;31.55;25.47
62942;BME280;49042;47.318;19.874;2022-07-04T08:35:01;100385.87;;;32.01;24.44
62942;BME280;49042;47.318;19.874;2022-07-04T08:38:03;100371.06;;;32.37;23.09
62942;BME280;49042;47.318;19.874;2022-07-04T08:41:23;100372.47;;;33.15;22.06
62942;BME280;49042;47.318;19.874;2022-07-04T08:44:27;100369.13;;;33.80;22.31
62942;BME280;49042;47.318;19.874;2022-07-04T08:47:33;100376.34;;;33.53;22.51
62942;BME280;49042;47.318;19.874;2022-07-04T08:50:43;100358.31;;;34.33;21.35
62942;BME280;49042;47.318;19.874;2022-07-04T08:53:56;100364.75;;;35.32;19.76
62942;BME280;49042;47.318;19.874;2022-07-04T08:56:59;100371.88;;;35.21;20.28
62942;BME280;49042;47.318;19.874;2022-07-04T09:00:20;100372.06;;;35.67;19.21
62942;BME280;49042;47.318;19.874;2022-07-04T09:03:21;100369.59;;;35.40;18.40
62942;BME280;49042;47.318;19.874;2022-07-04T09:06:24;100362.03;;;36.16;18.27
62942;BME280;49042;47.318;19.874;2022-07-04T09:09:28;100365.34;;;36.89;17.09
62942;BME280;49042;47.318;19.874;2022-07-04T09:12:30;100367.38;;;37.53;15.81
62942;BME280;49042;47.318;19.874;2022-07-04T09:15:52;100366.81;;;36.93;17.01
62942;BME280;49042;47.318;19.874;2022-07-04T09:18:54;100371.69;;;38.81;14.81
62942;BME280;49042;47.318;19.874;2022-07-04T09:22:02;100371.94;;;37.95;15.07
62942;BME280;49042;47.318;19.874;2022-07-04T09:25:05;100364.66;;;38.27;15.39
62942;BME280;49042;47.318;19.874;2022-07-04T09:28:07;100357.00;;;37.68;14.44
62942;BME280;49042;47.318;19.874;2022-07-04T09:31:23;100368.53;;;37.81;15.62
62942;BME280;49042;47.318;19.874;2022-07-04T09:34:25;100354.53;;;37.86;14.47
62942;BME280;49042;47.318;19.874;2022-07-04T09:37:36;100359.53;;;37.81;15.57
62942;BME280;49042;47.318;19.874;2022-07-04T09:40:39;100358.84;;;39.63;13.95
62942;BME280;49042;47.318;19.874;2022-07-04T09:44:09;100358.09;;;39.81;13.60
62942;BME280;49042;47.318;19.874;2022-07-04T09:47:23;100355.13;;;38.94;14.01
62942;BME280;49042;47.318;19.874;2022-07-04T09:50:27;100341.59;;;40.77;14.25
62942;BME280;49042;47.318;19.874;2022-07-04T09:53:30;100343.53;;;41.40;12.31
62942;BME280;49042;47.318;19.874;2022-07-04T09:56:46;100334.09;;;40.23;12.28
62942;BME280;49042;47.318;19.874;2022-07-04T09:59:48;100343.84;;;41.19;12.60
62942;BME280;49042;47.318;19.874;2022-07-04T10:02:56;100345.84;;;41.27;11.72
62942;BME280;49042;47.318;19.874;2022-07-04T10:06:04;100343.53;;;42.21;11.47
62942;BME280;49042;47.318;19.874;2022-07-04T10:09:08;100343.16;;;41.17;12.69
62942;BME280;49042;47.318;19.874;2022-07-04T10:12:24;100339.22;;;40.36;11.79
62942;BME280;49042;47.318;19.874;2022-07-04T10:15:27;100334.88;;;41.45;11.60
62942;BME280;49042;47.318;19.874;2022-07-04T10:18:29;100342.53;;;41.95;11.24
62942;BME280;49042;47.318;19.874;2022-07-04T10:21:31;100331.56;;;42.22;11.43
62942;BME280;49042;47.318;19.874;2022-07-04T10:24:34;100336.09;;;42.04;12.34
62942;BME280;49042;47.318;19.874;2022-07-04T10:27:39;100335.91;;;41.52;12.26
62942;BME280;49042;47.318;19.874;2022-07-04T10:30:51;100335.34;;;42.81;11.53
62942;BME280;49042;47.318;19.874;2022-07-04T10:33:54;100328.50;;;40.81;12.20
62942;BME280;49042;47.318;19.874;2022-07-04T10:36:57;100329.00;;;40.66;13.63
62942;BME280;49042;47.318;19.874;2022-07-04T10:39:59;100320.69;;;41.50;13.02
62942;BME280;49042;47.318;19.874;2022-07-04T10:43:01;100323.97;;;39.57;13.43
62942;BME280;49042;47.318;19.874;2022-07-04T10:49:19;100326.47;;;38.17;14.60
62942;BME280;49042;47.318;19.874;2022-07-04T10:52:22;100308.72;;;37.05;16.06
62942;BME280;49042;47.318;19.874;2022-07-04T10:55:24;100314.06;;;36.39;17.21
62942;BME280;49042;47.318;19.874;2022-07-04T10:58:42;100312.41;;;35.67;17.57
62942;BME280;49042;47.318;19.874;2022-07-04T11:05:14;100300.53;;;35.21;18.62
62942;BME280;49042;47.318;19.874;2022-07-04T11:08:16;100297.34;;;34.78;18.75
62942;BME280;49042;47.318;19.874;2022-07-04T11:11:47;100297.19;;;34.68;17.94
62942;BME280;49042;47.318;19.874;2022-07-04T11:14:49;100291.91;;;34.91;19.33
62942;BME280;49042;47.318;19.874;2022-07-04T11:17:51;100293.84;;;35.13;18.65
62942;BME280;49042;47.318;19.874;2022-07-04T11:20:54;100294.44;;;35.05;19.36
62942;BME280;49042;47.318;19.874;2022-07-04T11:23:55;100280.03;;;35.05;19.31
62942;BME280;49042;47.318;19.874;2022-07-04T11:26:58;100280.50;;;34.99;19.45
62942;BME280;49042;47.318;19.874;2022-07-04T11:30:00;100273.56;;;35.31;18.76
62942;BME280;49042;47.318;19.874;2022-07-04T11:33:02;100267.47;;;35.04;17.91
62942;BME280;49042;47.318;19.874;2022-07-04T11:36:08;100269.25;;;35.28;18.36
62942;BME280;49042;47.318;19.874;2022-07-04T11:39:18;100263.56;;;35.56;17.25
62942;BME280;49042;47.318;19.874;2022-07-04T11:42:20;100257.84;;;35.36;17.51
62942;BME280;49042;47.318;19.874;2022-07-04T11:45:41;100252.88;;;35.18;17.76
62942;BME280;49042;47.318;19.874;2022-07-04T11:48:43;100257.66;;;35.74;18.71
62942;BME280;49042;47.318;19.874;2022-07-04T11:51:48;100243.87;;;35.65;18.51
62942;BME280;49042;47.318;19.874;2022-07-04T11:54:51;100239.03;;;35.81;17.79
62942;BME280;49042;47.318;19.874;2022-07-04T11:57:55;100244.37;;;36.05;17.71
62942;BME280;49042;47.318;19.874;2022-07-04T12:00:59;100226.94;;;36.19;18.81
62942;BME280;49042;47.318;19.874;2022-07-04T12:04:15;100236.44;;;35.90;16.23
62942;BME280;49042;47.318;19.874;2022-07-04T12:07:20;100229.59;;;36.54;15.86
62942;BME280;49042;47.318;19.874;2022-07-04T12:10:24;100218.34;;;36.14;15.56
62942;BME280;49042;47.318;19.874;2022-07-04T12:13:26;100225.66;;;36.58;14.96
62942;BME280;49042;47.318;19.874;2022-07-04T12:16:28;100230.50;;;36.76;15.03
62942;BME280;49042;47.318;19.874;2022-07-04T12:19:30;100221.78;;;37.05;16.25
62942;BME280;49042;47.318;19.874;2022-07-04T12:22:36;100223.03;;;36.90;14.34
62942;BME280;49042;47.318;19.874;2022-07-04T12:25:39;100213.84;;;37.67;12.72
62942;BME280;49042;47.318;19.874;2022-07-04T12:28:41;100212.34;;;37.53;12.64
62942;BME280;49042;47.318;19.874;2022-07-04T12:31:43;100209.19;;;38.30;13.34
62942;BME280;49042;47.318;19.874;2022-07-04T12:34:46;100219.97;;;39.02;12.56
62942;BME280;49042;47.318;19.874;2022-07-04T12:38:21;100213.53;;;39.03;14.12
62942;BME280;49042;47.318;19.874;2022-07-04T12:41:30;100214.44;;;40.92;11.06
62942;BME280;49042;47.318;19.874;2022-07-04T12:44:34;100214.69;;;41.25;10.92
62942;BME280;49042;47.318;19.874;2022-07-04T12:47:47;100211.62;;;42.92;10.25
62942;BME280;49042;47.318;19.874;2022-07-04T12:50:50;100209.50;;;44.88;8.96
62942;BME280;49042;47.318;19.874;2022-07-04T12:53:55;100216.50;;;44.76;9.13
62942;BME280;49042;47.318;19.874;2022-07-04T12:57:15;100206.13;;;44.62;9.92
62942;BME280;49042;47.318;19.874;2022-07-04T13:00:19;100220.56;;;47.34;8.19
62942;BME280;49042;47.318;19.874;2022-07-04T13:03:37;100217.38;;;45.76;8.72
62942;BME280;49042;47.318;19.874;2022-07-04T13:06:39;100219.09;;;46.58;8.60
62942;BME280;49042;47.318;19.874;2022-07-04T13:09:42;100224.41;;;47.82;7.52
62942;BME280;49042;47.318;19.874;2022-07-04T13:12:44;100231.66;;;47.12;7.95
62942;BME280;49042;47.318;19.874;2022-07-04T13:15:46;100208.25;;;48.69;7.12
62942;BME280;49042;47.318;19.874;2022-07-04T13:18:48;100222.78;;;46.88;7.00
62942;BME280;49042;47.318;19.874;2022-07-04T13:21:51;100228.78;;;47.56;6.94
62942;BME280;49042;47.318;19.874;2022-07-04T13:24:53;100217.91;;;48.04;6.38
62942;BME280;49042;47.318;19.874;2022-07-04T13:27:55;100218.81;;;47.68;6.29
62942;BME280;49042;47.318;19.874;2022-07-04T13:30:57;100221.91;;;46.36;7.30
62942;BME280;49042;47.318;19.874;2022-07-04T13:33:59;100218.41;;;47.29;6.91
62942;BME280;49042;47.318;19.874;2022-07-04T13:37:01;100211.44;;;46.76;7.17
62942;BME280;49042;47.318;19.874;2022-07-04T13:40:03;100212.22;;;47.56;6.98
62942;BME280;49042;47.318;19.874;2022-07-04T13:43:05;100216.78;;;49.68;6.21
62942;BME280;49042;47.318;19.874;2022-07-04T13:46:12;100216.44;;;46.94;6.88
62942;BME280;49042;47.318;19.874;2022-07-04T13:49:14;100206.09;;;48.37;6.50
62942;BME280;49042;47.318;19.874;2022-07-04T13:52:16;100207.81;;;48.65;6.43
62942;BME280;49042;47.318;19.874;2022-07-04T13:55:18;100206.72;;;47.27;7.11
62942;BME280;49042;47.318;19.874;2022-07-04T13:58:20;100195.91;;;50.38;7.04
62942;BME280;49042;47.318;19.874;2022-07-04T14:01:22;100198.84;;;49.78;6.84
62942;BME280;49042;47.318;19.874;2022-07-04T14:04:24;100193.63;;;50.79;5.50
62942;BME280;49042;47.318;19.874;2022-07-04T14:07:26;100190.28;;;49.40;6.67
62942;BME280;49042;47.318;19.874;2022-07-04T14:10:28;100187.13;;;50.08;5.68
62942;BME280;49042;47.318;19.874;2022-07-04T14:13:30;100184.03;;;47.74;6.94
62942;BME280;49042;47.318;19.874;2022-07-04T14:16:32;100187.41;;;47.27;7.28
62942;BME280;49042;47.318;19.874;2022-07-04T14:19:34;100182.41;;;48.07;6.39
62942;BME280;49042;47.318;19.874;2022-07-04T14:22:39;100181.84;;;48.26;6.25
62942;BME280;49042;47.318;19.874;2022-07-04T14:25:41;100185.50;;;46.70;6.87
62942;BME280;49042;47.318;19.874;2022-07-04T14:28:43;100190.03;;;47.42;6.57
62942;BME280;49042;47.318;19.874;2022-07-04T14:31:46;100177.19;;;45.66;7.87
62942;BME280;49042;47.318;19.874;2022-07-04T14:34:48;100177.47;;;44.57;8.69
62942;BME280;49042;47.318;19.874;2022-07-04T14:37:50;100182.87;;;46.17;8.47
62942;BME280;49042;47.318;19.874;2022-07-04T14:40:56;100181.25;;;45.86;8.60
62942;BME280;49042;47.318;19.874;2022-07-04T14:43:58;100185.41;;;44.75;9.47
62942;BME280;49042;47.318;19.874;2022-07-04T14:47:00;100181.44;;;43.09;10.29
62942;BME280;49042;47.318;19.874;2022-07-04T14:50:03;100180.22;;;42.20;18.86
62942;BME280;49042;47.318;19.874;2022-07-04T14:53:05;100169.03;;;40.35;19.78
62942;BME280;49042;47.318;19.874;2022-07-04T14:56:11;100176.06;;;38.35;23.05
62942;BME280;49042;47.318;19.874;2022-07-04T14:59:13;100169.84;;;36.87;17.40
62942;BME280;49042;47.318;19.874;2022-07-04T15:02:15;100152.37;;;36.68;17.34
62942;BME280;49042;47.318;19.874;2022-07-04T15:05:17;100154.94;;;35.34;26.12
62942;BME280;49042;47.318;19.874;2022-07-04T15:08:19;100147.62;;;35.00;26.24
62942;BME280;49042;47.318;19.874;2022-07-04T15:11:22;100146.41;;;34.68;27.16
62942;BME280;49042;47.318;19.874;2022-07-04T15:14:24;100141.38;;;33.63;28.71
62942;BME280;49042;47.318;19.874;2022-07-04T15:17:26;100139.09;;;33.57;26.72
62942;BME280;49042;47.318;19.874;2022-07-04T15:20:29;100145.13;;;33.74;22.57
62942;BME280;49042;47.318;19.874;2022-07-04T15:23:49;100136.31;;;33.96;27.59
62942;BME280;49042;47.318;19.874;2022-07-04T15:27:09;100137.28;;;33.82;22.18
62942;BME280;49042;47.318;19.874;2022-07-04T15:30:11;100132.56;;;33.73;21.88
62942;BME280;49042;47.318;19.874;2022-07-04T15:33:13;100138.00;;;33.47;23.39
62942;BME280;49042;47.318;19.874;2022-07-04T15:36:17;100127.63;;;34.04;24.78
62942;BME280;49042;47.318;19.874;2022-07-04T15:39:19;100127.56;;;34.17;24.07
62942;BME280;49042;47.318;19.874;2022-07-04T15:42:21;100125.88;;;33.65;26.12
62942;BME280;49042;47.318;19.874;2022-07-04T15:45:23;100123.53;;;33.48;23.44
62942;BME280;49042;47.318;19.874;2022-07-04T15:48:25;100114.87;;;33.55;20.20
62942;BME280;49042;47.318;19.874;2022-07-04T15:51:27;100124.94;;;33.53;19.83
62942;BME280;49042;47.318;19.874;2022-07-04T15:54:45;100117.69;;;33.54;23.93
62942;BME280;49042;47.318;19.874;2022-07-04T15:57:47;100114.97;;;33.01;28.54